sensor_id;sensor_type;location;lat;lon;timestamp;P1;durP1;ratioP1;P2;durP2;ratioP2
28180;SDS011;15464;50.988;10.318;2022-12-07T00:01:10;12.68;;;8.95;;
28180;SDS011;15464;50.988;10.318;2022-12-07T00:03:44;13.07;;;9.35;;
28180;SDS011;15464;50.988;10.318;2022-12-07T00:06:13;15.27;;;9.32;;
28180;SDS011;15464;50.988;10.318;2022-12-07T00:08:41;13.43;;;10.15;;
28180;SDS011;15464;50.988;10.318;2022-12-07T00:11:09;16.00;;;10.13;;
28180;SDS011;15464;50.988;10.318;2022-12-07T00:13:40;14.15;;;9.93;;
28180;SDS011;15464;50.988;10.318;2022-12-07T00:16:15;11.43;;;8.85;;
28180;SDS011;15464;50.988;10.318;2022-12-07T00:18:43;12.20;;;9.63;;
28180;SDS011;15464;50.988;10.318;2022-12-07T00:23:45;16.48;;;10.75;;
28180;SDS011;15464;50.988;10.318;2022-12-07T00:28:47;14.75;;;10.98;;
28180;SDS011;15464;50.988;10.318;2022-12-07T00:31:16;18.70;;;11.10;;
28180;SDS011;15464;50.988;10.318;2022-12-07T00:33:44;16.67;;;11.23;;
28180;SDS011;15464;50.988;10.318;2022-12-07T00:36:13;18.60;;;11.40;;
28180;SDS011;15464;50.988;10.318;2022-12-07T00:38:46;18.83;;;12.38;;
28180;SDS011;15464;50.988;10.318;2022-12-07T00:41:13;14.75;;;10.77;;
28180;SDS011;15464;50.988;10.318;2022-12-07T00:43:42;18.80;;;10.20;;
28180;SDS011;15464;50.988;10.318;2022-12-07T00:46:10;14.15;;;9.80;;
28180;SDS011;15464;50.988;10.318;2022-12-07T00:48:38;19.23;;;11.55;;
28180;SDS011;15464;50.988;10.318;2022-12-07T00:51:05;14.93;;;11.13;;
28180;SDS011;15464;50.988;10.318;2022-12-07T00:53:36;15.15;;;11.38;;
28180;SDS011;15464;50.988;10.318;2022-12-07T00:56:07;14.05;;;11.02;;
28180;SDS011;15464;50.988;10.318;2022-12-07T00:58:35;14.07;;;10.07;;
28180;SDS011;15464;50.988;10.318;2022-12-07T01:01:02;14.65;;;10.75;;
28180;SDS011;15464;50.988;10.318;2022-12-07T01:03:30;15.33;;;10.73;;
28180;SDS011;15464;50.988;10.318;2022-12-07T01:05:57;14.38;;;10.55;;
28180;SDS011;15464;50.988;10.318;2022-12-07T01:08:25;14.48;;;10.43;;
28180;SDS011;15464;50.988;10.318;2022-12-07T01:10:59;15.63;;;10.93;;
28180;SDS011;15464;50.988;10.318;2022-12-07T01:13:29;13.00;;;10.43;;
28180;SDS011;15464;50.988;10.318;2022-12-07T01:15:56;15.13;;;10.50;;
28180;SDS011;15464;50.988;10.318;2022-12-07T01:18:27;14.23;;;10.38;;
28180;SDS011;15464;50.988;10.318;2022-12-07T01:23:25;13.82;;;10.52;;
28180;SDS011;15464;50.988;10.318;2022-12-07T01:25:55;14.02;;;10.75;;
28180;SDS011;15464;50.988;10.318;2022-12-07T01:28:23;12.95;;;9.60;;
28180;SDS011;15464;50.988;10.318;2022-12-07T01:30:57;17.83;;;12.80;;
28180;SDS011;15464;50.988;10.318;2022-12-07T01:33:32;16.77;;;11.57;;
28180;SDS011;15464;50.988;10.318;2022-12-07T01:36:03;15.20;;;10.93;;
28180;SDS011;15464;50.988;10.318;2022-12-07T01:38:31;15.52;;;12.07;;
28180;SDS011;15464;50.988;10.318;2022-12-07T01:40:59;15.13;;;11.05;;
28180;SDS011;15464;50.988;10.318;2022-12-07T01:43:27;15.07;;;11.23;;
28180;SDS011;15464;50.988;10.318;2022-12-07T01:45:55;14.52;;;10.93;;
28180;SDS011;15464;50.988;10.318;2022-12-07T01:48:27;16.52;;;12.20;;
28180;SDS011;15464;50.988;10.318;2022-12-07T01:50:56;14.88;;;11.70;;
28180;SDS011;15464;50.988;10.318;2022-12-07T01:53:29;14.93;;;12.18;;
28180;SDS011;15464;50.988;10.318;2022-12-07T01:55:58;15.93;;;11.13;;
28180;SDS011;15464;50.988;10.318;2022-12-07T01:58:25;18.05;;;12.55;;
28180;SDS011;15464;50.988;10.318;2022-12-07T02:00:52;19.40;;;14.13;;
28180;SDS011;15464;50.988;10.318;2022-12-07T02:03:24;16.48;;;12.27;;
28180;SDS011;15464;50.988;10.318;2022-12-07T02:05:56;19.35;;;13.57;;
28180;SDS011;15464;50.988;10.318;2022-12-07T02:08:25;17.10;;;12.20;;
28180;SDS011;15464;50.988;10.318;2022-12-07T02:10:52;16.52;;;12.02;;
28180;SDS011;15464;50.988;10.318;2022-12-07T02:13:20;16.42;;;12.98;;
28180;SDS011;15464;50.988;10.318;2022-12-07T02:16:03;17.67;;;12.93;;
28180;SDS011;15464;50.988;10.318;2022-12-07T02:21:50;15.13;;;11.60;;
28180;SDS011;15464;50.988;10.318;2022-12-07T02:28:19;17.92;;;12.85;;
28180;SDS011;15464;50.988;10.318;2022-12-07T02:30:44;19.07;;;14.03;;
28180;SDS011;15464;50.988;10.318;2022-12-07T02:33:16;18.25;;;13.80;;
28180;SDS011;15464;50.988;10.318;2022-12-07T02:41:16;21.20;;;13.95;;
28180;SDS011;15464;50.988;10.318;2022-12-07T02:43:53;20.98;;;15.02;;
28180;SDS011;15464;50.988;10.318;2022-12-07T02:46:23;20.58;;;14.88;;
28180;SDS011;15464;50.988;10.318;2022-12-07T02:48:55;22.20;;;16.10;;
28180;SDS011;15464;50.988;10.318;2022-12-07T02:51:22;21.42;;;15.00;;
28180;SDS011;15464;50.988;10.318;2022-12-07T02:53:49;21.30;;;15.95;;
28180;SDS011;15464;50.988;10.318;2022-12-07T03:10:03;24.17;;;17.67;;
28180;SDS011;15464;50.988;10.318;2022-12-07T03:12:42;22.40;;;16.63;;
28180;SDS011;15464;50.988;10.318;2022-12-07T03:15:14;26.13;;;17.25;;
28180;SDS011;15464;50.988;10.318;2022-12-07T03:17:52;25.65;;;17.98;;
28180;SDS011;15464;50.988;10.318;2022-12-07T03:20:22;26.23;;;17.65;;
28180;SDS011;15464;50.988;10.318;2022-12-07T03:22:51;25.45;;;18.10;;
28180;SDS011;15464;50.988;10.318;2022-12-07T03:25:20;25.15;;;18.70;;
28180;SDS011;15464;50.988;10.318;2022-12-07T03:30:42;24.55;;;18.17;;
28180;SDS011;15464;50.988;10.318;2022-12-07T03:33:19;24.02;;;16.73;;
28180;SDS011;15464;50.988;10.318;2022-12-07T03:36:01;22.40;;;16.35;;
28180;SDS011;15464;50.988;10.318;2022-12-07T03:41:09;26.52;;;18.02;;
28180;SDS011;15464;50.988;10.318;2022-12-07T03:43:41;30.20;;;19.88;;
28180;SDS011;15464;50.988;10.318;2022-12-07T03:46:19;25.30;;;18.40;;
28180;SDS011;15464;50.988;10.318;2022-12-07T03:48:57;25.85;;;17.60;;
28180;SDS011;15464;50.988;10.318;2022-12-07T03:51:43;23.80;;;17.35;;
28180;SDS011;15464;50.988;10.318;2022-12-07T03:57:11;23.50;;;16.75;;
28180;SDS011;15464;50.988;10.318;2022-12-07T03:59:39;21.92;;;17.30;;
28180;SDS011;15464;50.988;10.318;2022-12-07T04:02:08;21.30;;;16.50;;
28180;SDS011;15464;50.988;10.318;2022-12-07T04:04:39;22.08;;;17.30;;
28180;SDS011;15464;50.988;10.318;2022-12-07T04:07:06;29.55;;;20.42;;
28180;SDS011;15464;50.988;10.318;2022-12-07T04:09:32;24.65;;;17.48;;
28180;SDS011;15464;50.988;10.318;2022-12-07T04:11:59;22.77;;;16.58;;
28180;SDS011;15464;50.988;10.318;2022-12-07T04:14:26;24.42;;;18.58;;
28180;SDS011;15464;50.988;10.318;2022-12-07T04:16:54;24.98;;;17.23;;
28180;SDS011;15464;50.988;10.318;2022-12-07T04:19:29;22.73;;;16.45;;
28180;SDS011;15464;50.988;10.318;2022-12-07T04:21:57;23.27;;;17.20;;
28180;SDS011;15464;50.988;10.318;2022-12-07T04:24:25;24.75;;;17.02;;
28180;SDS011;15464;50.988;10.318;2022-12-07T04:26:52;30.95;;;19.52;;
28180;SDS011;15464;50.988;10.318;2022-12-07T04:29:19;24.58;;;18.25;;
28180;SDS011;15464;50.988;10.318;2022-12-07T04:31:47;26.27;;;18.67;;
28180;SDS011;15464;50.988;10.318;2022-12-07T04:34:14;27.05;;;19.42;;
28180;SDS011;15464;50.988;10.318;2022-12-07T04:36:41;26.15;;;19.33;;
28180;SDS011;15464;50.988;10.318;2022-12-07T04:39:13;28.00;;;19.63;;
28180;SDS011;15464;50.988;10.318;2022-12-07T04:41:48;28.10;;;19.85;;
28180;SDS011;15464;50.988;10.318;2022-12-07T04:44:16;24.75;;;18.40;;
28180;SDS011;15464;50.988;10.318;2022-12-07T04:46:43;25.27;;;18.33;;
28180;SDS011;15464;50.988;10.318;2022-12-07T04:49:11;26.63;;;17.42;;
28180;SDS011;15464;50.988;10.318;2022-12-07T04:51:39;24.70;;;18.48;;
28180;SDS011;15464;50.988;10.318;2022-12-07T04:54:06;24.90;;;18.80;;
28180;SDS011;15464;50.988;10.318;2022-12-07T04:56:34;28.60;;;20.15;;
28180;SDS011;15464;50.988;10.318;2022-12-07T04:59:01;25.53;;;18.60;;
28180;SDS011;15464;50.988;10.318;2022-12-07T05:01:29;29.42;;;20.23;;
28180;SDS011;15464;50.988;10.318;2022-12-07T05:03:56;22.70;;;17.70;;
28180;SDS011;15464;50.988;10.318;2022-12-07T05:06:23;23.98;;;17.70;;
28180;SDS011;15464;50.988;10.318;2022-12-07T05:08:49;24.80;;;18.23;;
28180;SDS011;15464;50.988;10.318;2022-12-07T05:11:16;26.30;;;19.33;;
28180;SDS011;15464;50.988;10.318;2022-12-07T05:14:02;25.13;;;18.92;;
28180;SDS011;15464;50.988;10.318;2022-12-07T05:16:30;26.25;;;19.23;;
28180;SDS011;15464;50.988;10.318;2022-12-07T05:18:57;29.75;;;20.65;;
28180;SDS011;15464;50.988;10.318;2022-12-07T05:21:24;24.60;;;18.02;;
28180;SDS011;15464;50.988;10.318;2022-12-07T05:23:51;26.00;;;18.30;;
28180;SDS011;15464;50.988;10.318;2022-12-07T05:26:18;25.15;;;18.40;;
28180;SDS011;15464;50.988;10.318;2022-12-07T05:28:45;29.40;;;19.45;;
28180;SDS011;15464;50.988;10.318;2022-12-07T05:31:11;26.52;;;19.58;;
28180;SDS011;15464;50.988;10.318;2022-12-07T05:33:38;27.65;;;20.60;;
28180;SDS011;15464;50.988;10.318;2022-12-07T05:36:05;26.67;;;18.98;;
28180;SDS011;15464;50.988;10.318;2022-12-07T05:38:33;23.83;;;17.87;;
28180;SDS011;15464;50.988;10.318;2022-12-07T05:41:03;23.98;;;18.27;;
28180;SDS011;15464;50.988;10.318;2022-12-07T05:43:32;21.75;;;16.73;;
28180;SDS011;15464;50.988;10.318;2022-12-07T05:45:59;22.70;;;17.27;;
28180;SDS011;15464;50.988;10.318;2022-12-07T05:48:26;21.17;;;16.23;;
28180;SDS011;15464;50.988;10.318;2022-12-07T05:50:53;21.70;;;17.27;;
28180;SDS011;15464;50.988;10.318;2022-12-07T05:53:19;21.67;;;16.42;;
28180;SDS011;15464;50.988;10.318;2022-12-07T05:55:48;22.13;;;15.70;;
28180;SDS011;15464;50.988;10.318;2022-12-07T05:58:15;21.13;;;14.75;;
28180;SDS011;15464;50.988;10.318;2022-12-07T06:01:00;24.13;;;17.58;;
28180;SDS011;15464;50.988;10.318;2022-12-07T06:03:27;24.17;;;17.00;;
28180;SDS011;15464;50.988;10.318;2022-12-07T06:05:54;22.83;;;17.45;;
28180;SDS011;15464;50.988;10.318;2022-12-07T06:08:20;25.27;;;18.20;;
28180;SDS011;15464;50.988;10.318;2022-12-07T06:10:47;23.00;;;17.88;;
28180;SDS011;15464;50.988;10.318;2022-12-07T06:13:34;23.90;;;18.33;;
28180;SDS011;15464;50.988;10.318;2022-12-07T06:16:00;23.95;;;17.85;;
28180;SDS011;15464;50.988;10.318;2022-12-07T06:18:27;27.17;;;20.10;;
28180;SDS011;15464;50.988;10.318;2022-12-07T06:20:54;20.95;;;15.88;;
28180;SDS011;15464;50.988;10.318;2022-12-07T06:23:20;21.08;;;16.92;;
28180;SDS011;15464;50.988;10.318;2022-12-07T06:25:47;22.50;;;17.25;;
28180;SDS011;15464;50.988;10.318;2022-12-07T06:28:13;23.08;;;17.02;;
28180;SDS011;15464;50.988;10.318;2022-12-07T06:30:40;22.30;;;16.65;;
28180;SDS011;15464;50.988;10.318;2022-12-07T06:33:07;21.13;;;16.50;;
28180;SDS011;15464;50.988;10.318;2022-12-07T06:35:33;18.77;;;15.48;;
28180;SDS011;15464;50.988;10.318;2022-12-07T06:38:00;20.98;;;16.67;;
28180;SDS011;15464;50.988;10.318;2022-12-07T06:40:27;22.67;;;16.38;;
28180;SDS011;15464;50.988;10.318;2022-12-07T06:42:53;19.42;;;15.07;;
28180;SDS011;15464;50.988;10.318;2022-12-07T06:45:20;21.42;;;15.98;;
28180;SDS011;15464;50.988;10.318;2022-12-07T06:47:47;21.42;;;15.48;;
28180;SDS011;15464;50.988;10.318;2022-12-07T06:50:13;22.23;;;15.95;;
28180;SDS011;15464;50.988;10.318;2022-12-07T06:52:40;19.15;;;14.57;;
28180;SDS011;15464;50.988;10.318;2022-12-07T06:55:07;22.88;;;15.50;;
28180;SDS011;15464;50.988;10.318;2022-12-07T06:57:33;20.20;;;15.07;;
28180;SDS011;15464;50.988;10.318;2022-12-07T07:00:00;17.17;;;13.95;;
28180;SDS011;15464;50.988;10.318;2022-12-07T07:02:27;20.90;;;15.75;;
28180;SDS011;15464;50.988;10.318;2022-12-07T07:04:54;20.00;;;14.85;;
28180;SDS011;15464;50.988;10.318;2022-12-07T07:07:21;19.45;;;13.10;;
28180;SDS011;15464;50.988;10.318;2022-12-07T07:09:47;17.45;;;13.60;;
28180;SDS011;15464;50.988;10.318;2022-12-07T07:12:14;17.60;;;12.35;;
28180;SDS011;15464;50.988;10.318;2022-12-07T07:14:41;17.00;;;12.75;;
28180;SDS011;15464;50.988;10.318;2022-12-07T07:17:08;16.60;;;12.75;;
28180;SDS011;15464;50.988;10.318;2022-12-07T07:19:35;19.27;;;12.55;;
28180;SDS011;15464;50.988;10.318;2022-12-07T07:22:03;15.52;;;11.98;;
28180;SDS011;15464;50.988;10.318;2022-12-07T07:24:30;17.63;;;12.80;;
28180;SDS011;15464;50.988;10.318;2022-12-07T07:26:56;17.90;;;11.85;;
28180;SDS011;15464;50.988;10.318;2022-12-07T07:29:23;15.82;;;12.63;;
28180;SDS011;15464;50.988;10.318;2022-12-07T07:31:50;16.25;;;12.48;;
28180;SDS011;15464;50.988;10.318;2022-12-07T07:34:16;20.50;;;12.90;;
28180;SDS011;15464;50.988;10.318;2022-12-07T07:36:43;18.00;;;12.13;;
28180;SDS011;15464;50.988;10.318;2022-12-07T07:39:10;22.50;;;14.55;;
28180;SDS011;15464;50.988;10.318;2022-12-07T07:41:39;18.35;;;12.75;;
28180;SDS011;15464;50.988;10.318;2022-12-07T07:44:05;16.17;;;11.95;;
28180;SDS011;15464;50.988;10.318;2022-12-07T07:46:32;16.67;;;11.43;;
28180;SDS011;15464;50.988;10.318;2022-12-07T07:48:59;14.50;;;11.20;;
28180;SDS011;15464;50.988;10.318;2022-12-07T07:51:26;15.55;;;11.18;;
28180;SDS011;15464;50.988;10.318;2022-12-07T07:53:52;17.05;;;11.85;;
28180;SDS011;15464;50.988;10.318;2022-12-07T07:56:19;14.00;;;11.05;;
28180;SDS011;15464;50.988;10.318;2022-12-07T07:58:46;11.88;;;9.65;;
28180;SDS011;15464;50.988;10.318;2022-12-07T08:01:12;16.33;;;10.20;;
28180;SDS011;15464;50.988;10.318;2022-12-07T08:03:39;14.23;;;10.45;;
28180;SDS011;15464;50.988;10.318;2022-12-07T08:06:06;13.93;;;10.57;;
28180;SDS011;15464;50.988;10.318;2022-12-07T08:08:33;15.57;;;10.45;;
28180;SDS011;15464;50.988;10.318;2022-12-07T08:11:00;15.75;;;11.30;;
28180;SDS011;15464;50.988;10.318;2022-12-07T08:13:27;14.20;;;10.73;;
28180;SDS011;15464;50.988;10.318;2022-12-07T08:15:57;15.45;;;11.45;;
28180;SDS011;15464;50.988;10.318;2022-12-07T08:18:24;15.52;;;12.02;;
28180;SDS011;15464;50.988;10.318;2022-12-07T08:20:51;17.38;;;11.38;;
28180;SDS011;15464;50.988;10.318;2022-12-07T08:23:17;15.00;;;11.30;;
28180;SDS011;15464;50.988;10.318;2022-12-07T08:25:44;14.48;;;10.65;;
28180;SDS011;15464;50.988;10.318;2022-12-07T08:28:11;16.08;;;12.20;;
28180;SDS011;15464;50.988;10.318;2022-12-07T08:30:37;15.10;;;11.45;;
28180;SDS011;15464;50.988;10.318;2022-12-07T08:33:04;15.95;;;10.68;;
28180;SDS011;15464;50.988;10.318;2022-12-07T08:35:32;19.23;;;11.30;;
28180;SDS011;15464;50.988;10.318;2022-12-07T08:38:00;14.95;;;10.27;;
28180;SDS011;15464;50.988;10.318;2022-12-07T08:40:28;13.60;;;10.20;;
28180;SDS011;15464;50.988;10.318;2022-12-07T08:42:55;16.73;;;10.82;;
28180;SDS011;15464;50.988;10.318;2022-12-07T08:45:22;20.00;;;12.68;;
28180;SDS011;15464;50.988;10.318;2022-12-07T08:48:09;16.65;;;11.27;;
28180;SDS011;15464;50.988;10.318;2022-12-07T08:50:39;14.57;;;11.45;;
28180;SDS011;15464;50.988;10.318;2022-12-07T08:53:14;16.02;;;10.35;;
28180;SDS011;15464;50.988;10.318;2022-12-07T08:55:41;16.02;;;11.32;;
28180;SDS011;15464;50.988;10.318;2022-12-07T08:58:07;15.27;;;11.50;;
28180;SDS011;15464;50.988;10.318;2022-12-07T09:00:34;16.10;;;11.43;;
28180;SDS011;15464;50.988;10.318;2022-12-07T09:03:01;17.30;;;10.00;;
28180;SDS011;15464;50.988;10.318;2022-12-07T09:05:27;15.13;;;10.80;;
28180;SDS011;15464;50.988;10.318;2022-12-07T09:07:55;14.93;;;10.45;;
28180;SDS011;15464;50.988;10.318;2022-12-07T09:10:26;14.15;;;9.43;;
28180;SDS011;15464;50.988;10.318;2022-12-07T09:12:53;12.80;;;8.20;;
28180;SDS011;15464;50.988;10.318;2022-12-07T09:15:19;16.13;;;9.05;;
28180;SDS011;15464;50.988;10.318;2022-12-07T09:17:46;12.48;;;8.30;;
28180;SDS011;15464;50.988;10.318;2022-12-07T09:20:13;11.30;;;8.88;;
28180;SDS011;15464;50.988;10.318;2022-12-07T09:22:40;11.93;;;8.35;;
28180;SDS011;15464;50.988;10.318;2022-12-07T09:25:06;10.73;;;8.05;;
28180;SDS011;15464;50.988;10.318;2022-12-07T09:27:33;10.77;;;7.30;;
28180;SDS011;15464;50.988;10.318;2022-12-07T09:30:00;8.73;;;6.75;;
28180;SDS011;15464;50.988;10.318;2022-12-07T09:32:27;11.57;;;6.80;;
28180;SDS011;15464;50.988;10.318;2022-12-07T09:34:54;8.88;;;6.30;;
28180;SDS011;15464;50.988;10.318;2022-12-07T09:37:21;12.77;;;7.22;;
28180;SDS011;15464;50.988;10.318;2022-12-07T09:39:48;9.80;;;7.18;;
28180;SDS011;15464;50.988;10.318;2022-12-07T09:44:55;8.52;;;6.20;;
28180;SDS011;15464;50.988;10.318;2022-12-07T09:47:24;8.18;;;5.78;;
28180;SDS011;15464;50.988;10.318;2022-12-07T09:49:51;10.02;;;6.80;;
28180;SDS011;15464;50.988;10.318;2022-12-07T09:52:27;12.75;;;7.10;;
28180;SDS011;15464;50.988;10.318;2022-12-07T09:55:02;9.70;;;7.07;;
28180;SDS011;15464;50.988;10.318;2022-12-07T09:57:31;10.50;;;6.13;;
28180;SDS011;15464;50.988;10.318;2022-12-07T10:00:03;15.32;;;6.53;;
28180;SDS011;15464;50.988;10.318;2022-12-07T10:02:40;11.68;;;5.40;;
28180;SDS011;15464;50.988;10.318;2022-12-07T10:07:49;11.88;;;6.15;;
28180;SDS011;15464;50.988;10.318;2022-12-07T10:10:17;10.40;;;6.50;;
28180;SDS011;15464;50.988;10.318;2022-12-07T10:12:59;7.15;;;4.43;;
28180;SDS011;15464;50.988;10.318;2022-12-07T10:23:58;6.10;;;4.50;;
28180;SDS011;15464;50.988;10.318;2022-12-07T10:26:34;6.88;;;4.55;;
28180;SDS011;15464;50.988;10.318;2022-12-07T10:29:14;6.68;;;4.65;;
28180;SDS011;15464;50.988;10.318;2022-12-07T10:31:44;6.05;;;4.35;;
28180;SDS011;15464;50.988;10.318;2022-12-07T10:34:25;6.25;;;3.67;;
28180;SDS011;15464;50.988;10.318;2022-12-07T10:36:53;5.45;;;4.15;;
28180;SDS011;15464;50.988;10.318;2022-12-07T10:39:39;8.18;;;4.43;;
28180;SDS011;15464;50.988;10.318;2022-12-07T10:42:18;6.78;;;4.30;;
28180;SDS011;15464;50.988;10.318;2022-12-07T10:47:36;6.30;;;4.40;;
28180;SDS011;15464;50.988;10.318;2022-12-07T10:59:01;9.02;;;5.18;;
28180;SDS011;15464;50.988;10.318;2022-12-07T11:21:45;7.88;;;3.78;;
28180;SDS011;15464;50.988;10.318;2022-12-07T11:24:20;9.30;;;3.97;;
28180;SDS011;15464;50.988;10.318;2022-12-07T11:35:16;6.30;;;2.90;;
28180;SDS011;15464;50.988;10.318;2022-12-07T11:40:31;5.90;;;3.50;;
28180;SDS011;15464;50.988;10.318;2022-12-07T11:43:09;7.65;;;3.80;;
28180;SDS011;15464;50.988;10.318;2022-12-07T11:45:44;5.70;;;3.67;;
28180;SDS011;15464;50.988;10.318;2022-12-07T11:51:16;8.60;;;3.58;;
28180;SDS011;15464;50.988;10.318;2022-12-07T11:54:11;7.68;;;3.47;;
28180;SDS011;15464;50.988;10.318;2022-12-07T11:56:42;5.07;;;3.00;;
28180;SDS011;15464;50.988;10.318;2022-12-07T11:59:15;5.25;;;2.42;;
28180;SDS011;15464;50.988;10.318;2022-12-07T12:01:51;2.63;;;1.88;;
28180;SDS011;15464;50.988;10.318;2022-12-07T12:04:53;2.97;;;1.73;;
28180;SDS011;15464;50.988;10.318;2022-12-07T12:07:23;5.15;;;2.38;;
28180;SDS011;15464;50.988;10.318;2022-12-07T12:18:58;5.78;;;2.40;;
28180;SDS011;15464;50.988;10.318;2022-12-07T12:21:29;5.50;;;2.30;;
28180;SDS011;15464;50.988;10.318;2022-12-07T12:24:04;17.92;;;3.55;;
28180;SDS011;15464;50.988;10.318;2022-12-07T12:26:40;5.63;;;2.88;;
28180;SDS011;15464;50.988;10.318;2022-12-07T12:29:50;9.50;;;3.40;;
28180;SDS011;15464;50.988;10.318;2022-12-07T12:32:14;11.65;;;2.65;;
28180;SDS011;15464;50.988;10.318;2022-12-07T12:50:24;4.32;;;2.53;;
28180;SDS011;15464;50.988;10.318;2022-12-07T12:53:16;6.38;;;2.40;;
28180;SDS011;15464;50.988;10.318;2022-12-07T12:55:58;8.10;;;2.80;;
28180;SDS011;15464;50.988;10.318;2022-12-07T12:58:30;6.90;;;2.78;;
28180;SDS011;15464;50.988;10.318;2022-12-07T13:04:28;4.45;;;1.85;;
28180;SDS011;15464;50.988;10.318;2022-12-07T13:06:56;12.73;;;2.58;;
28180;SDS011;15464;50.988;10.318;2022-12-07T13:09:27;14.93;;;2.47;;
28180;SDS011;15464;50.988;10.318;2022-12-07T13:12:01;7.10;;;2.38;;
28180;SDS011;15464;50.988;10.318;2022-12-07T13:17:53;3.25;;;1.52;;
28180;SDS011;15464;50.988;10.318;2022-12-07T13:19:59;3.95;;;1.85;;
28180;SDS011;15464;50.988;10.318;2022-12-07T13:25:18;2.65;;;1.70;;
28180;SDS011;15464;50.988;10.318;2022-12-07T13:28:09;4.40;;;1.83;;
28180;SDS011;15464;50.988;10.318;2022-12-07T13:31:03;3.65;;;1.70;;
28180;SDS011;15464;50.988;10.318;2022-12-07T13:33:36;4.88;;;1.73;;
28180;SDS011;15464;50.988;10.318;2022-12-07T13:36:03;2.95;;;1.60;;
28180;SDS011;15464;50.988;10.318;2022-12-07T13:38:34;4.20;;;1.98;;
28180;SDS011;15464;50.988;10.318;2022-12-07T13:41:13;5.88;;;1.85;;
28180;SDS011;15464;50.988;10.318;2022-12-07T13:46:14;7.25;;;2.55;;
28180;SDS011;15464;50.988;10.318;2022-12-07T13:48:49;51.90;;;5.13;;
28180;SDS011;15464;50.988;10.318;2022-12-07T13:51:20;189.15;;;15.02;;
28180;SDS011;15464;50.988;10.318;2022-12-07T13:53:53;39.63;;;5.00;;
28180;SDS011;15464;50.988;10.318;2022-12-07T13:56:22;20.38;;;4.13;;
28180;SDS011;15464;50.988;10.318;2022-12-07T13:58:53;24.73;;;4.50;;
28180;SDS011;15464;50.988;10.318;2022-12-07T14:01:21;5.95;;;3.20;;
28180;SDS011;15464;50.988;10.318;2022-12-07T14:03:48;5.88;;;3.10;;
28180;SDS011;15464;50.988;10.318;2022-12-07T14:06:19;6.15;;;2.53;;
28180;SDS011;15464;50.988;10.318;2022-12-07T14:09:05;4.53;;;2.38;;
28180;SDS011;15464;50.988;10.318;2022-12-07T14:11:44;5.00;;;2.83;;
28180;SDS011;15464;50.988;10.318;2022-12-07T14:14:14;5.85;;;2.30;;
28180;SDS011;15464;50.988;10.318;2022-12-07T14:16:45;4.30;;;2.63;;
28180;SDS011;15464;50.988;10.318;2022-12-07T14:24:46;7.65;;;2.67;;
28180;SDS011;15464;50.988;10.318;2022-12-07T14:27:16;6.03;;;2.35;;
28180;SDS011;15464;50.988;10.318;2022-12-07T14:29:48;8.15;;;2.70;;
28180;SDS011;15464;50.988;10.318;2022-12-07T14:32:19;7.97;;;2.90;;
28180;SDS011;15464;50.988;10.318;2022-12-07T14:34:54;6.03;;;2.72;;
28180;SDS011;15464;50.988;10.318;2022-12-07T14:37:26;5.45;;;2.72;;
28180;SDS011;15464;50.988;10.318;2022-12-07T14:39:53;5.50;;;2.35;;
28180;SDS011;15464;50.988;10.318;2022-12-07T14:42:20;4.32;;;2.15;;
28180;SDS011;15464;50.988;10.318;2022-12-07T14:44:50;4.10;;;1.92;;
28180;SDS011;15464;50.988;10.318;2022-12-07T14:47:17;4.15;;;2.15;;
28180;SDS011;15464;50.988;10.318;2022-12-07T14:50:04;5.65;;;2.70;;
28180;SDS011;15464;50.988;10.318;2022-12-07T14:52:32;5.00;;;2.38;;
28180;SDS011;15464;50.988;10.318;2022-12-07T14:55:29;3.67;;;2.30;;
28180;SDS011;15464;50.988;10.318;2022-12-07T14:57:57;5.30;;;2.88;;
28180;SDS011;15464;50.988;10.318;2022-12-07T15:00:25;4.90;;;2.60;;
28180;SDS011;15464;50.988;10.318;2022-12-07T15:02:53;4.07;;;2.27;;
28180;SDS011;15464;50.988;10.318;2022-12-07T15:05:20;4.10;;;2.20;;
28180;SDS011;15464;50.988;10.318;2022-12-07T15:07:47;5.00;;;2.72;;
28180;SDS011;15464;50.988;10.318;2022-12-07T15:10:18;9.10;;;2.78;;
28180;SDS011;15464;50.988;10.318;2022-12-07T15:12:51;5.93;;;3.25;;
28180;SDS011;15464;50.988;10.318;2022-12-07T15:15:18;7.57;;;3.72;;
28180;SDS011;15464;50.988;10.318;2022-12-07T15:17:45;6.65;;;3.33;;
28180;SDS011;15464;50.988;10.318;2022-12-07T15:20:12;3.88;;;2.58;;
28180;SDS011;15464;50.988;10.318;2022-12-07T15:22:42;6.15;;;2.60;;
28180;SDS011;15464;50.988;10.318;2022-12-07T15:25:12;4.15;;;2.30;;
28180;SDS011;15464;50.988;10.318;2022-12-07T15:27:40;4.30;;;2.60;;
28180;SDS011;15464;50.988;10.318;2022-12-07T15:30:07;4.75;;;2.53;;
28180;SDS011;15464;50.988;10.318;2022-12-07T15:32:34;5.75;;;3.00;;
28180;SDS011;15464;50.988;10.318;2022-12-07T15:35:01;4.82;;;2.60;;
28180;SDS011;15464;50.988;10.318;2022-12-07T15:57:45;9.70;;;4.65;;
28180;SDS011;15464;50.988;10.318;2022-12-07T16:00:12;10.23;;;5.10;;
28180;SDS011;15464;50.988;10.318;2022-12-07T16:02:39;10.23;;;5.13;;
28180;SDS011;15464;50.988;10.318;2022-12-07T16:05:06;9.45;;;4.82;;
28180;SDS011;15464;50.988;10.318;2022-12-07T16:07:33;8.35;;;5.20;;
28180;SDS011;15464;50.988;10.318;2022-12-07T16:10:00;10.80;;;4.47;;
28180;SDS011;15464;50.988;10.318;2022-12-07T16:12:27;9.07;;;5.40;;
28180;SDS011;15464;50.988;10.318;2022-12-07T16:14:54;7.32;;;4.40;;
28180;SDS011;15464;50.988;10.318;2022-12-07T16:17:20;9.48;;;3.65;;
28180;SDS011;15464;50.988;10.318;2022-12-07T16:19:47;6.78;;;3.35;;
28180;SDS011;15464;50.988;10.318;2022-12-07T16:22:14;6.50;;;3.22;;
28180;SDS011;15464;50.988;10.318;2022-12-07T16:24:40;5.43;;;3.00;;
28180;SDS011;15464;50.988;10.318;2022-12-07T16:27:07;8.07;;;3.67;;
28180;SDS011;15464;50.988;10.318;2022-12-07T16:29:34;5.97;;;3.20;;
28180;SDS011;15464;50.988;10.318;2022-12-07T16:32:03;7.22;;;3.40;;
28180;SDS011;15464;50.988;10.318;2022-12-07T16:34:30;8.40;;;3.00;;
28180;SDS011;15464;50.988;10.318;2022-12-07T16:36:57;5.78;;;2.90;;
28180;SDS011;15464;50.988;10.318;2022-12-07T16:39:32;9.20;;;3.75;;
28180;SDS011;15464;50.988;10.318;2022-12-07T16:41:59;8.88;;;4.53;;
28180;SDS011;15464;50.988;10.318;2022-12-07T16:44:26;7.63;;;4.38;;
28180;SDS011;15464;50.988;10.318;2022-12-07T16:46:53;10.38;;;4.20;;
28180;SDS011;15464;50.988;10.318;2022-12-07T16:49:20;7.00;;;4.03;;
28180;SDS011;15464;50.988;10.318;2022-12-07T16:51:48;7.00;;;3.58;;
28180;SDS011;15464;50.988;10.318;2022-12-07T16:54:36;4.72;;;3.13;;
28180;SDS011;15464;50.988;10.318;2022-12-07T16:57:03;5.80;;;3.47;;
28180;SDS011;15464;50.988;10.318;2022-12-07T16:59:29;8.52;;;3.50;;
28180;SDS011;15464;50.988;10.318;2022-12-07T17:01:56;8.55;;;3.70;;
28180;SDS011;15464;50.988;10.318;2022-12-07T17:04:23;5.50;;;2.88;;
28180;SDS011;15464;50.988;10.318;2022-12-07T17:06:49;7.07;;;2.90;;
28180;SDS011;15464;50.988;10.318;2022-12-07T17:09:16;4.75;;;2.88;;
28180;SDS011;15464;50.988;10.318;2022-12-07T17:11:46;3.95;;;2.63;;
28180;SDS011;15464;50.988;10.318;2022-12-07T17:14:14;5.18;;;2.45;;
28180;SDS011;15464;50.988;10.318;2022-12-07T17:16:59;7.55;;;3.17;;
28180;SDS011;15464;50.988;10.318;2022-12-07T17:19:28;6.45;;;3.53;;